createdAt,value
2018-07-09T00:01:54.223Z,99153.00
2018-07-09T00:04:25.478Z,99160.00
2018-07-09T00:07:00.787Z,99153.00
2018-07-09T00:09:31.734Z,99156.00
2018-07-09T00:12:04.406Z,99149.00
2018-07-09T00:14:35.111Z,99151.00
2018-07-09T00:17:06.422Z,99148.00
2018-07-09T00:19:37.529Z,99146.00
2018-07-09T00:22:08.797Z,99149.00
2018-07-09T00:24:41.322Z,99145.00
2018-07-09T00:27:12.783Z,99145.00
2018-07-09T00:29:45.286Z,99144.00
2018-07-09T00:32:16.414Z,99150.00
2018-07-09T00:34:48.490Z,99151.00
2018-07-09T00:37:19.751Z,99146.00
2018-07-09T00:39:50.376Z,99144.00
2018-07-09T00:42:24.365Z,99147.00
2018-07-09T00:44:56.629Z,99143.00
2018-07-09T00:47:27.199Z,99143.00
2018-07-09T00:49:58.599Z,99143.00
2018-07-09T00:52:29.847Z,99147.00
2018-07-09T00:55:00.914Z,99145.00
2018-07-09T00:57:32.193Z,99144.00
2018-07-09T01:00:03.682Z,99141.00
2018-07-09T01:02:35.349Z,99138.00
2018-07-09T01:05:06.985Z,99138.00
2018-07-09T01:07:39.313Z,99133.00
2018-07-09T01:10:10.517Z,99136.00
2018-07-09T01:12:41.294Z,99139.00
2018-07-09T01:15:13.078Z,99140.00
2018-07-09T01:17:44.465Z,99140.00
2018-07-09T01:20:15.698Z,99144.00
2018-07-09T01:22:46.473Z,99137.00
2018-07-09T01:25:17.781Z,99148.00
2018-07-09T01:27:49.468Z,99140.00
2018-07-09T01:30:20.853Z,99138.00
2018-07-09T01:32:52.128Z,99141.00
2018-07-09T01:35:23.782Z,99145.00
2018-07-09T01:37:55.213Z,99148.00
2018-07-09T01:40:26.120Z,99145.00
2018-07-09T01:42:57.045Z,99148.00
2018-07-09T01:45:28.714Z,99148.00
2018-07-09T01:47:59.748Z,99148.00
2018-07-09T01:50:30.995Z,99149.00
2018-07-09T01:53:02.232Z,99144.00
2018-07-09T01:55:33.601Z,99146.00
2018-07-09T01:58:04.931Z,99139.00
2018-07-09T02:00:36.622Z,99139.00
2018-07-09T02:03:07.979Z,99137.00
2018-07-09T02:05:39.646Z,99131.00
2018-07-09T02:08:11.010Z,99135.00
2018-07-09T02:10:42.354Z,99134.00
2018-07-09T02:13:13.617Z,99141.00
2018-07-09T02:15:44.998Z,99143.00
2018-07-09T02:18:16.299Z,99149.00
2018-07-09T02:20:47.557Z,99151.00
2018-07-09T02:23:18.928Z,99142.00
2018-07-09T02:25:49.932Z,99139.00
2018-07-09T02:28:21.737Z,99140.00
2018-07-09T02:30:53.032Z,99152.00
2018-07-09T02:33:24.044Z,99149.00
2018-07-09T02:35:55.963Z,99159.00
2018-07-09T02:38:27.242Z,99151.00
2018-07-09T02:40:58.303Z,99151.00
2018-07-09T02:43:29.266Z,99149.00
2018-07-09T02:46:01.365Z,99150.00
2018-07-09T02:48:32.806Z,99145.00
2018-07-09T02:51:04.333Z,99142.00
2018-07-09T02:53:35.946Z,99146.00
2018-07-09T02:56:06.935Z,99148.00
2018-07-09T02:58:37.466Z,99155.00
2018-07-09T03:01:08.689Z,99156.00
2018-07-09T03:03:39.277Z,99159.00
2018-07-09T03:06:09.631Z,99155.00
2018-07-09T03:08:40.028Z,99156.00
2018-07-09T03:11:10.326Z,99150.00
2018-07-09T03:13:41.309Z,99150.00
2018-07-09T03:16:12.157Z,99149.00
2018-07-09T03:18:43.654Z,99146.00
2018-07-09T03:21:15.306Z,99148.00
2018-07-09T03:23:46.607Z,99147.00
2018-07-09T03:26:17.633Z,99144.00
2018-07-09T03:28:49.048Z,99140.00
2018-07-09T03:31:20.726Z,99144.00
2018-07-09T03:33:52.460Z,99144.00
2018-07-09T03:36:23.493Z,99148.00
2018-07-09T03:38:55.150Z,99151.00
2018-07-09T03:41:26.688Z,99153.00
2018-07-09T03:43:58.618Z,99158.00
2018-07-09T03:46:29.393Z,99160.00
2018-07-09T03:49:00.787Z,99154.00
2018-07-09T03:51:31.712Z,99158.00
2018-07-09T03:54:02.896Z,99161.00
2018-07-09T03:56:34.282Z,99159.00
2018-07-09T03:59:04.963Z,99155.00
2018-07-09T04:01:36.427Z,99160.00
2018-07-09T04:04:07.885Z,99164.00
2018-07-09T04:06:38.499Z,99162.00
2018-07-09T04:09:09.692Z,99164.00
2018-07-09T04:11:40.465Z,99167.00
2018-07-09T04:14:12.193Z,99159.00
2018-07-09T04:16:43.963Z,99161.00
2018-07-09T04:19:15.086Z,99163.00
2018-07-09T04:21:46.808Z,99168.00
2018-07-09T04:24:18.017Z,99163.00
2018-07-09T04:26:49.501Z,99168.00
2018-07-09T04:29:20.849Z,99169.00
2018-07-09T04:31:51.853Z,99168.00
2018-07-09T04:34:23.579Z,99166.00
2018-07-09T04:36:56.025Z,99171.00
2018-07-09T04:39:27.297Z,99163.00
2018-07-09T04:41:58.308Z,99168.00
2018-07-09T04:44:29.824Z,99170.00
2018-07-09T04:47:01.304Z,99176.00
2018-07-09T04:49:32.724Z,99179.00
2018-07-09T04:52:02.919Z,99185.00
2018-07-09T04:54:33.677Z,99186.00
2018-07-09T04:57:04.357Z,99195.00
2018-07-09T04:59:35.585Z,99200.00
2018-07-09T05:02:06.161Z,99198.00
2018-07-09T05:04:37.120Z,99197.00
2018-07-09T05:07:08.026Z,99201.00
2018-07-09T05:09:38.513Z,99198.00
2018-07-09T05:12:09.124Z,99189.00
2018-07-09T05:14:39.563Z,99191.00
2018-07-09T05:17:10.327Z,99188.00
2018-07-09T05:19:40.693Z,99193.00
2018-07-09T05:22:10.821Z,99191.00
2018-07-09T05:24:41.114Z,99195.00
2018-07-09T05:27:12.136Z,99191.00
2018-07-09T05:29:42.886Z,99196.00
2018-07-09T05:32:13.773Z,99199.00
2018-07-09T05:34:44.116Z,99195.00
2018-07-09T05:37:14.661Z,99203.00
2018-07-09T05:39:45.953Z,99207.00
2018-07-09T05:42:16.738Z,99205.00
2018-07-09T05:44:47.420Z,99211.00
2018-07-09T05:47:18.715Z,99205.00
2018-07-09T05:49:52.272Z,99206.00
2018-07-09T05:52:23.040Z,99213.00
2018-07-09T05:54:54.242Z,99214.00
2018-07-09T05:57:25.469Z,99210.00
2018-07-09T05:59:56.977Z,99209.00
2018-07-09T06:02:27.225Z,99211.00
2018-07-09T06:04:58.353Z,99211.00
2018-07-09T06:07:29.063Z,99203.00
2018-07-09T06:10:00.275Z,99209.00
2018-07-09T06:12:31.688Z,99210.00
2018-07-09T06:15:02.885Z,99216.00
2018-07-09T06:17:34.326Z,99213.00
2018-07-09T06:20:05.349Z,99215.00
2018-07-09T06:22:36.685Z,99211.00
2018-07-09T06:25:07.908Z,99205.00
2018-07-09T06:27:38.759Z,99213.00
2018-07-09T06:30:10.030Z,99205.00
2018-07-09T06:32:41.069Z,99214.00
2018-07-09T06:35:12.404Z,99201.00
2018-07-09T06:37:43.575Z,99196.00
2018-07-09T06:40:14.929Z,99200.00
2018-07-09T06:42:46.676Z,99197.00
2018-07-09T06:45:19.246Z,99197.00
2018-07-09T06:47:50.700Z,99201.00
2018-07-09T06:50:22.403Z,99202.00
2018-07-09T06:52:53.083Z,99201.00
2018-07-09T06:55:24.852Z,99200.00
2018-07-09T06:57:56.208Z,99201.00
2018-07-09T07:00:27.185Z,99200.00
2018-07-09T07:02:58.340Z,99196.00
2018-07-09T07:05:30.045Z,99190.00
2018-07-09T07:08:01.070Z,99193.00
2018-07-09T07:10:32.449Z,99188.00
2018-07-09T07:13:02.786Z,99187.00
2018-07-09T07:15:34.097Z,99186.00
2018-07-09T07:18:05.951Z,99177.00
2018-07-09T07:20:37.690Z,99180.00
2018-07-09T07:23:09.321Z,99180.00
2018-07-09T07:25:41.139Z,99179.00
2018-07-09T07:28:12.989Z,99184.00
2018-07-09T07:30:44.737Z,99184.00
2018-07-09T07:33:16.700Z,99181.00
2018-07-09T07:35:48.634Z,99176.00
2018-07-09T07:38:21.185Z,99175.00
2018-07-09T07:40:53.328Z,99172.00
2018-07-09T07:43:25.439Z,99174.00
2018-07-09T07:45:56.280Z,99167.00
2018-07-09T07:48:26.772Z,99158.00
2018-07-09T07:50:57.931Z,99154.00
2018-07-09T07:53:29.315Z,99154.00
2018-07-09T07:56:00.964Z,99159.00
2018-07-09T07:58:32.883Z,99158.00
2018-07-09T08:01:04.723Z,99153.00
2018-07-09T08:03:36.833Z,99153.00
2018-07-09T08:06:09.875Z,99154.00
2018-07-09T08:08:42.085Z,99156.00
2018-07-09T08:11:14.274Z,99146.00
2018-07-09T08:13:46.181Z,99145.00
2018-07-09T08:16:18.447Z,99144.00
2018-07-09T08:18:49.768Z,99136.00
2018-07-09T08:21:21.048Z,99144.00
2018-07-09T08:23:52.927Z,99145.00
2018-07-09T08:26:24.367Z,99141.00
2018-07-09T08:28:56.543Z,99141.00
2018-07-09T08:31:28.020Z,99138.00
2018-07-09T08:33:59.031Z,99136.00
2018-07-09T08:36:29.994Z,99131.00
2018-07-09T08:39:01.666Z,99132.00
2018-07-09T08:41:34.652Z,99132.00
2018-07-09T08:44:06.216Z,99131.00
2018-07-09T08:46:37.851Z,99131.00
2018-07-09T08:49:09.364Z,99128.00
2018-07-09T08:51:40.672Z,99135.00
2018-07-09T08:54:12.100Z,99124.00
2018-07-09T08:56:43.627Z,99128.00
2018-07-09T08:59:14.663Z,99124.00
2018-07-09T09:01:45.322Z,99123.00
2018-07-09T09:04:16.707Z,99122.00
2018-07-09T09:06:48.041Z,99123.00
2018-07-09T09:09:19.880Z,99115.00
2018-07-09T09:11:51.056Z,99121.00
2018-07-09T09:14:21.651Z,99124.00
2018-07-09T09:16:52.963Z,99129.00
2018-07-09T09:19:24.426Z,99132.00
2018-07-09T09:21:56.059Z,99121.00
2018-07-09T09:24:27.389Z,99129.00
2018-07-09T09:26:59.261Z,99122.00
2018-07-09T09:29:30.143Z,99120.00
2018-07-09T09:32:01.651Z,99117.00
2018-07-09T09:34:33.649Z,99118.00
2018-07-09T09:37:05.748Z,99118.00
2018-07-09T09:39:38.411Z,99121.00
2018-07-09T09:42:10.239Z,99116.00
2018-07-09T09:44:41.777Z,99114.00
2018-07-09T09:47:13.573Z,99112.00
2018-07-09T09:49:45.249Z,99101.00
2018-07-09T09:52:17.400Z,99105.00
2018-07-09T09:54:49.126Z,99100.00
2018-07-09T09:57:21.204Z,99097.00
2018-07-09T09:59:53.263Z,99098.00
2018-07-09T10:02:24.955Z,99095.00
2018-07-09T10:04:55.586Z,99084.00
2018-07-09T10:07:26.138Z,99077.00
2018-07-09T10:09:57.249Z,99083.00
2018-07-09T10:12:27.756Z,99078.00
2018-07-09T10:14:58.350Z,99087.00
2018-07-09T10:17:29.226Z,99078.00
2018-07-09T10:20:00.337Z,99078.00
2018-07-09T10:22:32.036Z,99070.00
2018-07-09T10:25:02.562Z,99079.00
2018-07-09T10:27:32.926Z,99072.00
2018-07-09T10:30:03.349Z,99071.00
2018-07-09T10:32:34.969Z,99070.00
2018-07-09T10:35:05.544Z,99067.00
2018-07-09T10:37:36.885Z,99063.00
2018-07-09T10:40:07.496Z,99063.00
2018-07-09T10:42:39.387Z,99054.00
2018-07-09T10:45:10.604Z,99059.00
2018-07-09T10:47:42.537Z,99057.00
2018-07-09T10:50:13.277Z,99047.00
2018-07-09T10:52:44.499Z,99044.00
2018-07-09T10:55:14.854Z,99041.00
2018-07-09T10:57:46.056Z,99038.00
2018-07-09T11:00:16.818Z,99033.00
2018-07-09T11:02:47.725Z,99039.00
2018-07-09T11:05:18.825Z,99032.00
2018-07-09T11:07:49.674Z,99029.00
2018-07-09T11:10:21.079Z,99031.00
2018-07-09T11:12:51.580Z,99027.00
2018-07-09T11:15:22.858Z,99026.00
2018-07-09T11:17:54.449Z,99031.00
2018-07-09T11:20:26.433Z,99011.00
2018-07-09T11:22:58.609Z,99006.00
2018-07-09T11:25:30.338Z,99016.00
2018-07-09T11:28:02.544Z,99022.00
2018-07-09T11:30:33.921Z,99033.00
2018-07-09T11:33:04.715Z,99027.00
2018-07-09T11:35:35.984Z,99011.00
2018-07-09T11:38:07.468Z,99023.00
2018-07-09T11:40:39.150Z,99021.00
2018-07-09T11:43:10.490Z,99014.00
2018-07-09T11:45:41.537Z,99007.00
2018-07-09T11:48:13.565Z,99012.00
2018-07-09T11:50:45.172Z,99014.00
2018-07-09T11:53:16.473Z,99018.00
2018-07-09T11:55:46.618Z,99020.00
2018-07-09T11:58:17.353Z,99019.00
2018-07-09T12:00:48.470Z,99015.00
2018-07-09T12:03:20.556Z,99009.00
2018-07-09T12:05:51.963Z,99006.00
2018-07-09T12:08:23.329Z,99002.00
2018-07-09T12:10:54.433Z,98999.00
2018-07-09T12:13:24.878Z,99002.00
2018-07-09T12:15:56.019Z,98999.00
2018-07-09T12:18:27.789Z,98990.00
2018-07-09T12:20:59.208Z,98984.00
2018-07-09T12:23:30.442Z,98981.00
2018-07-09T12:26:02.355Z,98984.00
2018-07-09T12:28:33.687Z,98966.00
2018-07-09T12:31:05.623Z,98966.00
2018-07-09T12:33:36.528Z,98969.00
2018-07-09T12:36:09.637Z,98974.00
2018-07-09T12:38:41.951Z,98968.00
2018-07-09T12:41:14.012Z,98969.00
2018-07-09T12:43:45.629Z,98980.00
2018-07-09T12:46:17.771Z,98979.00
2018-07-09T12:48:49.100Z,98988.00
2018-07-09T12:51:21.539Z,98992.00
2018-07-09T12:53:52.815Z,98971.00
2018-07-09T12:56:23.926Z,98971.00
2018-07-09T12:58:55.160Z,98972.00
2018-07-09T13:01:27.202Z,98973.00
2018-07-09T13:03:59.291Z,98978.00
2018-07-09T13:06:30.591Z,98972.00
2018-07-09T13:09:02.740Z,98972.00
2018-07-09T13:11:34.035Z,98974.00
2018-07-09T13:14:05.402Z,98971.00
2018-07-09T13:16:36.951Z,98970.00
2018-07-09T13:19:09.093Z,98965.00
2018-07-09T13:21:40.609Z,98960.00
2018-07-09T13:24:12.072Z,98964.00
2018-07-09T13:26:44.124Z,98957.00
2018-07-09T13:29:14.472Z,98961.00
2018-07-09T13:31:46.243Z,98963.00
2018-07-09T13:34:17.960Z,98968.00
2018-07-09T13:36:50.049Z,98966.00
2018-07-09T13:39:21.645Z,98972.00
2018-07-09T13:41:53.066Z,98977.00
2018-07-09T13:44:24.801Z,98982.00
2018-07-09T13:46:56.240Z,98984.00
2018-07-09T13:49:27.611Z,98989.00
2018-07-09T13:51:59.201Z,98998.00
2018-07-09T13:54:30.648Z,98998.00
2018-07-09T13:57:01.991Z,99005.00
2018-07-09T13:59:33.905Z,99008.00
2018-07-09T14:02:05.342Z,99009.00
2018-07-09T14:04:36.716Z,99023.00
2018-07-09T14:07:08.536Z,99024.00
2018-07-09T14:09:39.380Z,99020.00
2018-07-09T14:12:10.617Z,99019.00
2018-07-09T14:14:41.817Z,99016.00
2018-07-09T14:17:13.258Z,99001.00
2018-07-09T14:20:24.125Z,99006.00
2018-07-09T14:22:55.659Z,98989.00
2018-07-09T14:25:27.346Z,99001.00
2018-07-09T14:27:58.101Z,98999.00
2018-07-09T14:30:28.510Z,99004.00
2018-07-09T14:32:59.541Z,99013.00
2018-07-09T14:35:30.954Z,99003.00
2018-07-09T14:38:02.187Z,99013.00
2018-07-09T14:40:34.102Z,99012.00
2018-07-09T14:43:05.999Z,99010.00
2018-07-09T14:45:37.105Z,99013.00
2018-07-09T14:48:08.211Z,99010.00
2018-07-09T14:50:39.603Z,99010.00
2018-07-09T14:53:11.136Z,99001.00
2018-07-09T14:55:42.240Z,98998.00
2018-07-09T14:58:13.304Z,99003.00
2018-07-09T15:00:44.782Z,98997.00
2018-07-09T15:03:15.327Z,98999.00
2018-07-09T15:05:47.016Z,98995.00
2018-07-09T15:08:18.916Z,98997.00
2018-07-09T15:10:50.800Z,98995.00
2018-07-09T15:13:22.342Z,99001.00
2018-07-09T15:15:53.363Z,99004.00
2018-07-09T15:18:24.299Z,99008.00
2018-07-09T15:20:57.365Z,99009.00
2018-07-09T15:23:28.386Z,99012.00
2018-07-09T15:25:59.859Z,99007.00
2018-07-09T15:28:31.331Z,99010.00
2018-07-09T15:31:01.977Z,99009.00
2018-07-09T15:33:33.917Z,99010.00
2018-07-09T15:36:05.264Z,99011.00
2018-07-09T15:38:37.054Z,99004.00
2018-07-09T15:41:08.764Z,99010.00
2018-07-09T15:43:50.332Z,99006.00
2018-07-09T15:46:22.322Z,99008.00
2018-07-09T15:48:52.971Z,99010.00
2018-07-09T15:51:24.497Z,99012.00
2018-07-09T15:53:55.536Z,99020.00
2018-07-09T15:56:27.825Z,99016.00
2018-07-09T15:58:59.968Z,99022.00
2018-07-09T16:01:31.446Z,99022.00
2018-07-09T16:04:02.542Z,99028.00
2018-07-09T16:06:34.310Z,99029.00
2018-07-09T16:09:07.199Z,99031.00
2018-07-09T16:11:38.339Z,99039.00
2018-07-09T16:14:09.771Z,99042.00
2018-07-09T16:16:41.395Z,99043.00
2018-07-09T16:19:12.565Z,99055.00
2018-07-09T16:21:44.242Z,99058.00
2018-07-09T16:24:15.490Z,99058.00
2018-07-09T16:26:47.008Z,99070.00
2018-07-09T16:29:17.912Z,99079.00
2018-07-09T16:31:48.618Z,99082.00
2018-07-09T16:34:19.330Z,99092.00
2018-07-09T16:36:49.846Z,99091.00
2018-07-09T16:39:21.053Z,99095.00
2018-07-09T16:41:52.475Z,99103.00
2018-07-09T16:44:23.175Z,99105.00
2018-07-09T16:46:55.060Z,99103.00
2018-07-09T16:49:26.604Z,99108.00
2018-07-09T16:51:57.666Z,99125.00
2018-07-09T16:54:28.287Z,99128.00
2018-07-09T16:56:59.770Z,99130.00
2018-07-09T16:59:30.748Z,99126.00
2018-07-09T17:02:01.740Z,99138.00
2018-07-09T17:04:32.441Z,99134.00
2018-07-09T17:07:04.367Z,99151.00
2018-07-09T17:09:35.232Z,99161.00
2018-07-09T17:12:05.449Z,99165.00
2018-07-09T17:14:36.598Z,99171.00
2018-07-09T17:17:07.712Z,99181.00
2018-07-09T17:19:38.623Z,99182.00
2018-07-09T17:22:09.548Z,99190.00
2018-07-09T17:24:39.744Z,99196.00
2018-07-09T17:27:10.642Z,99195.00
2018-07-09T17:29:42.070Z,99195.00
2018-07-09T17:32:12.170Z,99200.00
2018-07-09T17:34:43.805Z,99202.00
2018-07-09T17:37:16.312Z,99205.00
2018-07-09T17:39:47.259Z,99220.00
2018-07-09T17:42:18.982Z,99228.00
2018-07-09T17:44:50.323Z,99225.00
2018-07-09T17:47:21.854Z,99233.00
2018-07-09T17:49:53.223Z,99238.00
2018-07-09T17:52:24.467Z,99250.00
2018-07-09T17:54:55.273Z,99260.00
2018-07-09T17:57:27.181Z,99269.00
2018-07-09T17:59:59.344Z,99258.00
2018-07-09T18:02:31.353Z,99261.00
2018-07-09T18:05:02.814Z,99255.00
2018-07-09T18:07:34.406Z,99243.00
2018-07-09T18:10:05.766Z,99236.00
2018-07-09T18:12:36.914Z,99232.00
2018-07-09T18:15:08.338Z,99222.00
2018-07-09T18:17:39.295Z,99224.00
2018-07-09T18:20:10.425Z,99235.00
2018-07-09T18:22:41.971Z,99246.00
2018-07-09T18:25:12.980Z,99258.00
2018-07-09T18:27:43.937Z,99277.00
2018-07-09T18:30:15.291Z,99274.00
2018-07-09T18:32:46.177Z,99278.00
2018-07-09T18:35:16.880Z,99279.00
2018-07-09T18:37:48.156Z,99281.00
2018-07-09T18:40:19.613Z,99288.00
2018-07-09T18:42:49.766Z,99296.00
2018-07-09T18:45:21.094Z,99298.00
2018-07-09T18:47:52.041Z,99306.00
2018-07-09T18:50:22.097Z,99315.00
2018-07-09T18:52:52.658Z,99321.00
2018-07-09T18:55:24.054Z,99332.00
2018-07-09T18:57:54.272Z,99341.00
2018-07-09T19:00:24.673Z,99336.00
2018-07-09T19:02:55.857Z,99341.00
2018-07-09T19:05:38.091Z,99341.00
2018-07-09T19:08:08.913Z,99351.00
2018-07-09T19:10:39.518Z,99350.00
2018-07-09T19:13:10.538Z,99343.00
2018-07-09T19:15:42.014Z,99337.00
2018-07-09T19:18:26.775Z,99339.00
2018-07-09T19:21:36.685Z,99334.00
2018-07-09T19:24:06.873Z,99345.00
2018-07-09T19:26:37.795Z,99350.00
2018-07-09T19:29:06.181Z,99350.00
2018-07-09T19:31:36.584Z,99344.00
2018-07-09T19:34:06.447Z,99338.00
2018-07-09T19:36:35.809Z,99328.00
2018-07-09T19:39:08.319Z,99320.00
2018-07-09T19:41:37.362Z,99315.00
2018-07-09T19:44:06.433Z,99315.00
2018-07-09T19:46:35.528Z,99314.00
2018-07-09T19:49:04.672Z,99317.00
2018-07-09T19:51:33.945Z,99333.00
2018-07-09T19:54:02.714Z,99337.00
2018-07-09T19:56:32.159Z,99344.00
2018-07-09T19:59:01.262Z,99343.00
2018-07-09T20:01:30.400Z,99340.00
2018-07-09T20:04:00.278Z,99342.00
2018-07-09T20:06:29.879Z,99347.00
2018-07-09T20:10:05.651Z,99352.00
2018-07-09T20:12:39.726Z,99352.00
2018-07-09T20:15:13.526Z,99345.00
2018-07-09T20:17:44.069Z,99344.00
2018-07-09T20:20:13.698Z,99342.00
2018-07-09T20:22:42.056Z,99338.00
2018-07-09T20:25:10.862Z,99334.00
2018-07-09T20:27:39.985Z,99332.00
2018-07-09T20:30:09.105Z,99337.00
2018-07-09T20:32:38.029Z,99341.00
2018-07-09T20:35:06.858Z,99333.00
2018-07-09T20:37:36.135Z,99333.00
2018-07-09T20:40:05.227Z,99335.00
2018-07-09T20:42:34.172Z,99338.00
2018-07-09T20:45:03.224Z,99339.00
2018-07-09T20:47:32.805Z,99339.00
2018-07-09T20:50:02.556Z,99330.00
2018-07-09T20:52:31.847Z,99330.00
2018-07-09T20:55:01.518Z,99337.00
2018-07-09T20:57:31.061Z,99335.00
2018-07-09T21:00:00.880Z,99326.00
2018-07-09T21:02:30.047Z,99329.00
2018-07-09T21:04:58.961Z,99324.00
2018-07-09T21:07:27.875Z,99329.00
2018-07-09T21:09:56.957Z,99324.00
2018-07-09T21:12:27.045Z,99326.00
2018-07-09T21:14:56.023Z,99330.00
2018-07-09T21:17:25.732Z,99327.00
2018-07-09T21:19:55.328Z,99317.00
2018-07-09T21:22:24.485Z,99323.00
2018-07-09T21:24:53.759Z,99315.00
2018-07-09T21:27:22.397Z,99313.00
2018-07-09T21:29:51.788Z,99307.00
2018-07-09T21:32:20.422Z,99304.00
2018-07-09T21:34:49.826Z,99298.00
2018-07-09T21:37:18.665Z,99298.00
2018-07-09T21:39:47.080Z,99295.00
2018-07-09T21:42:16.131Z,99298.00
2018-07-09T21:44:45.481Z,99299.00
2018-07-09T21:47:14.834Z,99303.00
2018-07-09T21:49:43.565Z,99304.00
2018-07-09T21:52:12.472Z,99303.00
2018-07-09T21:54:41.622Z,99295.00
2018-07-09T21:57:11.012Z,99289.00
2018-07-09T21:59:40.054Z,99289.00
2018-07-09T22:02:09.064Z,99291.00
2018-07-09T22:04:38.792Z,99291.00
2018-07-09T22:07:07.817Z,99291.00
2018-07-09T22:09:36.440Z,99294.00
2018-07-09T22:12:06.271Z,99293.00
2018-07-09T22:14:35.259Z,99290.00
2018-07-09T22:17:04.628Z,99296.00
2018-07-09T22:19:33.803Z,99298.00
2018-07-09T22:22:02.781Z,99297.00
2018-07-09T22:24:32.243Z,99301.00
2018-07-09T22:27:01.833Z,99301.00
2018-07-09T22:29:30.381Z,99301.00
2018-07-09T22:32:01.243Z,99293.00
2018-07-09T22:34:31.952Z,99301.00
2018-07-09T22:37:02.508Z,99298.00
2018-07-09T22:39:33.106Z,99298.00
2018-07-09T22:42:03.704Z,99299.00
2018-07-09T22:44:34.276Z,99298.00
2018-07-09T22:47:04.761Z,99295.00
2018-07-09T22:49:35.251Z,99288.00
2018-07-09T22:52:05.944Z,99289.00
2018-07-09T22:54:36.280Z,99287.00
2018-07-09T22:57:08.219Z,99286.00
2018-07-09T22:59:39.706Z,99285.00
2018-07-09T23:02:11.090Z,99292.00
2018-07-09T23:04:41.872Z,99292.00
2018-07-09T23:07:11.918Z,99294.00
2018-07-09T23:10:07.289Z,99290.00
2018-07-09T23:13:20.886Z,99293.00
2018-07-09T23:16:39.012Z,99296.00
2018-07-09T23:19:26.833Z,99294.00
2018-07-09T23:22:13.447Z,99289.00
2018-07-09T23:24:42.981Z,99291.00
2018-07-09T23:27:12.053Z,99286.00
2018-07-09T23:29:40.797Z,99280.00
2018-07-09T23:32:10.183Z,99288.00
2018-07-09T23:34:39.206Z,99284.00
2018-07-09T23:37:08.079Z,99278.00
2018-07-09T23:39:37.226Z,99277.00
2018-07-09T23:42:06.368Z,99275.00
2018-07-09T23:44:35.197Z,99273.00
2018-07-09T23:47:04.114Z,99277.00
2018-07-09T23:49:33.144Z,99272.00
2018-07-09T23:52:01.642Z,99270.00
2018-07-09T23:54:30.296Z,99273.00
2018-07-09T23:59:27.440Z,99271.00
